Time;durP1;ratioP1;P1;durP2;ratioP2;P2;SDS_P1;SDS_P2;PMS_P1;PMS_P2;Temp;Humidity;BMP_temperature;BMP_pressure;BME280_temperature;BME280_humidity;BME280_pressure;Samples;Min_cycle;Max_cycle;Signal;HPM_P1;HPM_P2
2023/06/12 00:01:02;;;;;;;11.52;3.63;;;20.30;80.00;;;;;;5066489;28;20040;-59
2023/06/12 00:03:28;;;;;;;7.78;3.40;;;20.20;80.40;;;;;;5077298;28;20040;-60
2023/06/12 00:05:59;;;;;;;11.98;3.42;;;20.20;80.30;;;;;;5058577;28;20032;-60
2023/06/12 00:08:30;;;;;;;10.25;3.20;;;20.20;80.50;;;;;;5078133;28;20076;-59
2023/06/12 00:10:57;;;;;;;5.30;3.25;;;20.20;80.70;;;;;;5068262;28;20040;-60
2023/06/12 00:13:25;;;;;;;5.18;3.50;;;20.10;80.90;;;;;;5083273;28;20040;-60
2023/06/12 00:15:51;;;;;;;7.50;3.47;;;20.10;80.90;;;;;;5075401;28;20036;-59
2023/06/12 00:18:17;;;;;;;6.95;3.30;;;20.00;81.00;;;;;;5070163;28;20364;-59
2023/06/12 00:20:43;;;;;;;5.30;3.40;;;20.00;81.10;;;;;;5066798;28;20036;-59
2023/06/12 00:23:12;;;;;;;5.35;2.75;;;20.00;81.20;;;;;;5067046;28;20048;-58
2023/06/12 00:25:39;;;;;;;6.03;3.33;;;19.90;81.50;;;;;;5075766;28;20102;-59
2023/06/12 00:28:05;;;;;;;8.40;3.35;;;19.80;81.80;;;;;;5054911;28;20063;-59
2023/06/12 00:30:31;;;;;;;6.25;2.90;;;19.80;81.80;;;;;;5061179;28;20062;-60
2023/06/12 00:32:57;;;;;;;5.55;3.00;;;19.80;81.80;;;;;;5068117;28;20116;-59
2023/06/12 00:35:23;;;;;;;5.07;2.88;;;19.70;81.90;;;;;;5074134;28;20040;-59
2023/06/12 00:37:49;;;;;;;6.50;2.88;;;19.70;82.10;;;;;;5071432;28;20098;-59
2023/06/12 00:40:15;;;;;;;6.03;3.28;;;19.60;82.20;;;;;;5074696;28;20079;-59
2023/06/12 00:42:45;;;;;;;7.93;3.38;;;19.60;82.30;;;;;;5082358;28;20113;-59
2023/06/12 00:45:18;;;;;;;8.80;3.33;;;19.60;82.50;;;;;;5039140;28;20047;-59
2023/06/12 00:47:46;;;;;;;7.07;3.17;;;19.60;82.50;;;;;;5065176;28;20181;-59
2023/06/12 00:50:13;;;;;;;6.30;3.10;;;19.50;82.70;;;;;;5057378;28;20101;-60
2023/06/12 00:52:47;;;;;;;7.68;3.20;;;19.50;82.80;;;;;;5083112;28;20110;-58
2023/06/12 00:55:14;;;;;;;6.30;2.78;;;19.50;83.00;;;;;;5058387;28;20178;-59
2023/06/12 00:57:44;;;;;;;5.93;3.35;;;19.40;83.10;;;;;;5063488;28;20059;-59
2023/06/12 01:00:11;;;;;;;5.72;3.10;;;19.30;83.20;;;;;;5082935;28;20201;-59
2023/06/12 01:02:42;;;;;;;11.95;3.35;;;19.30;83.60;;;;;;5065458;28;20051;-59
2023/06/12 01:05:11;;;;;;;8.23;3.63;;;19.20;83.40;;;;;;5064601;28;20040;-58
2023/06/12 01:07:40;;;;;;;5.43;3.30;;;19.20;83.70;;;;;;5041220;28;20087;-59
2023/06/12 01:10:33;;;;;;;7.35;2.80;;;19.10;83.90;;;;;;5064511;28;20063;-59
2023/06/12 01:13:00;;;;;;;5.38;2.72;;;19.10;84.00;;;;;;5079032;28;20055;-57
2023/06/12 01:15:25;;;;;;;4.75;2.83;;;19.10;84.20;;;;;;5056773;28;20040;-59
2023/06/12 01:17:51;;;;;;;5.00;2.60;;;19.10;84.10;;;;;;5064922;28;20071;-57
2023/06/12 01:20:20;;;;;;;7.07;3.65;;;19.10;84.40;;;;;;5075522;28;20131;-58
2023/06/12 01:23:06;;;;;;;9.15;3.63;;;19.00;84.70;;;;;;5066366;28;20036;-59
2023/06/12 01:25:54;;;;;;;5.22;3.10;;;19.00;84.50;;;;;;5064686;28;20040;-59
2023/06/12 01:28:49;;;;;;;8.73;3.33;;;19.00;84.70;;;;;;5048745;28;20105;-59
2023/06/12 01:31:18;;;;;;;6.90;3.22;;;19.00;84.90;;;;;;5076295;28;20538;-59
2023/06/12 01:33:54;;;;;;;7.32;3.83;;;18.90;84.80;;;;;;5073844;28;20058;-59
2023/06/12 01:36:24;;;;;;;4.13;2.83;;;18.90;85.00;;;;;;5064152;28;20449;-59
2023/06/12 01:38:55;;;;;;;7.57;2.92;;;18.90;85.20;;;;;;5078734;28;20044;-60
2023/06/12 01:41:23;;;;;;;6.30;3.13;;;18.90;85.30;;;;;;5070186;28;20136;-60
2023/06/12 01:43:48;;;;;;;7.03;2.97;;;18.80;85.40;;;;;;5061766;28;20043;-59
2023/06/12 01:46:14;;;;;;;5.13;2.70;;;18.80;86.00;;;;;;5064246;28;20522;-59
2023/06/12 01:48:40;;;;;;;5.22;3.25;;;18.80;85.90;;;;;;5065460;28;20101;-59
2023/06/12 01:51:06;;;;;;;6.03;3.13;;;18.70;86.00;;;;;;5077259;28;20661;-58
2023/06/12 01:53:31;;;;;;;6.13;2.65;;;18.70;86.40;;;;;;5064574;28;20043;-57
2023/06/12 01:55:57;;;;;;;15.27;3.47;;;18.60;86.40;;;;;;5045049;28;20503;-59
2023/06/12 01:58:23;;;;;;;4.43;2.90;;;18.50;86.70;;;;;;5074947;28;20043;-59
2023/06/12 02:00:48;;;;;;;9.77;2.97;;;18.60;87.00;;;;;;5061758;28;20497;-59
2023/06/12 02:03:14;;;;;;;8.77;3.15;;;18.50;87.10;;;;;;5070049;28;20040;-59
2023/06/12 02:05:43;;;;;;;8.98;3.55;;;18.50;87.20;;;;;;5053003;28;20089;-59
2023/06/12 02:08:09;;;;;;;5.43;3.03;;;18.60;87.60;;;;;;5072072;28;20487;-60
2023/06/12 02:10:34;;;;;;;7.15;3.05;;;18.50;87.90;;;;;;5080102;28;20042;-59
2023/06/12 02:13:00;;;;;;;8.35;3.25;;;18.40;88.60;;;;;;5059798;28;20036;-59
2023/06/12 02:15:26;;;;;;;3.58;2.85;;;18.40;88.90;;;;;;5069360;28;20126;-59
2023/06/12 02:17:51;;;;;;;7.85;3.53;;;18.40;89.20;;;;;;5067570;28;20394;-59
2023/06/12 02:20:17;;;;;;;5.53;2.83;;;18.30;89.50;;;;;;5078587;28;20356;-59
2023/06/12 02:22:43;;;;;;;8.20;3.30;;;18.20;89.70;;;;;;5066597;28;20046;-59
2023/06/12 02:25:09;;;;;;;11.00;3.58;;;18.20;89.90;;;;;;5072719;28;20036;-59
2023/06/12 02:27:35;;;;;;;7.63;3.40;;;18.20;90.10;;;;;;5063539;28;20044;-60
2023/06/12 02:30:00;;;;;;;10.95;3.30;;;18.10;90.20;;;;;;5066165;28;20123;-59
2023/06/12 02:32:27;;;;;;;7.82;3.10;;;18.10;90.20;;;;;;5069669;28;20108;-60
2023/06/12 02:34:54;;;;;;;6.40;3.03;;;18.00;90.20;;;;;;5072482;28;20195;-59
2023/06/12 02:37:20;;;;;;;5.70;3.17;;;18.00;90.30;;;;;;5099305;28;20047;-59
2023/06/12 02:39:49;;;;;;;6.20;3.10;;;17.90;90.30;;;;;;5064598;28;20033;-59
2023/06/12 02:42:14;;;;;;;5.90;3.50;;;17.90;90.50;;;;;;5079823;28;20067;-60
2023/06/12 02:44:40;;;;;;;7.18;3.05;;;17.80;90.60;;;;;;5065971;28;20098;-60
2023/06/12 02:47:06;;;;;;;7.13;2.90;;;17.80;90.70;;;;;;5066708;28;20543;-60
2023/06/12 02:49:35;;;;;;;6.40;3.15;;;17.80;90.70;;;;;;5061762;28;20035;-57
2023/06/12 02:52:01;;;;;;;4.95;2.75;;;17.80;90.80;;;;;;5083186;28;20040;-59
2023/06/12 02:54:27;;;;;;;5.10;3.00;;;17.80;90.60;;;;;;5064177;28;20051;-57
2023/06/12 02:56:56;;;;;;;8.63;3.10;;;17.70;90.80;;;;;;5078961;28;20040;-59
2023/06/12 02:59:23;;;;;;;5.63;2.95;;;17.70;91.00;;;;;;5046918;28;20043;-58
2023/06/12 03:01:51;;;;;;;5.93;3.38;;;17.70;91.00;;;;;;5070140;28;20032;-59
2023/06/12 03:04:19;;;;;;;7.55;3.70;;;17.70;91.10;;;;;;5065310;28;20028;-58
2023/06/12 03:06:45;;;;;;;8.98;3.20;;;17.70;91.30;;;;;;5061881;28;20036;-58
2023/06/12 03:09:11;;;;;;;7.95;3.55;;;17.60;91.40;;;;;;5066537;28;20036;-59
2023/06/12 03:11:41;;;;;;;9.07;3.35;;;17.50;91.50;;;;;;5065295;28;20036;-59
2023/06/12 03:14:07;;;;;;;8.93;3.95;;;17.50;91.80;;;;;;5046840;28;20453;-59
2023/06/12 03:16:36;;;;;;;7.00;3.95;;;17.50;91.90;;;;;;5084057;28;20115;-59
2023/06/12 03:19:02;;;;;;;7.38;3.38;;;17.40;92.10;;;;;;5079749;28;20543;-58
2023/06/12 03:21:28;;;;;;;10.10;3.80;;;17.40;92.30;;;;;;5066325;28;20140;-58
2023/06/12 03:23:53;;;;;;;7.03;3.67;;;17.40;92.40;;;;;;5067595;28;20219;-59
2023/06/12 03:26:20;;;;;;;7.57;3.78;;;17.30;92.70;;;;;;5078788;28;20077;-58
2023/06/12 03:28:50;;;;;;;6.05;3.78;;;17.20;92.80;;;;;;5061502;28;20113;-58
2023/06/12 03:31:16;;;;;;;6.72;3.85;;;17.20;93.00;;;;;;5061380;28;20044;-59
2023/06/12 03:33:41;;;;;;;8.68;4.00;;;17.20;93.20;;;;;;5045684;28;20047;-58
2023/06/12 03:36:07;;;;;;;7.78;3.75;;;17.20;93.30;;;;;;5076193;28;20427;-58
2023/06/12 03:38:33;;;;;;;9.20;3.63;;;17.10;93.40;;;;;;5077192;28;20067;-58
2023/06/12 03:40:59;;;;;;;8.13;3.72;;;17.10;93.60;;;;;;5053884;28;20576;-59
2023/06/12 03:43:24;;;;;;;8.00;3.83;;;17.00;93.80;;;;;;5065280;28;20343;-60
2023/06/12 03:45:50;;;;;;;11.23;3.90;;;17.00;93.80;;;;;;5078586;28;20036;-59
2023/06/12 03:48:16;;;;;;;8.38;3.70;;;17.00;93.90;;;;;;5074583;28;20054;-59
2023/06/12 03:50:41;;;;;;;5.75;3.08;;;17.00;93.90;;;;;;5081910;28;20035;-59
2023/06/12 03:53:07;;;;;;;9.43;3.58;;;17.00;94.10;;;;;;5085261;28;20351;-60
2023/06/12 03:55:34;;;;;;;7.13;3.55;;;17.00;94.30;;;;;;5050337;28;20073;-59
2023/06/12 03:58:01;;;;;;;7.07;3.55;;;16.90;94.50;;;;;;5050314;28;20040;-61
2023/06/12 04:00:26;;;;;;;5.82;3.20;;;16.90;94.70;;;;;;5052420;28;20052;-60
2023/06/12 04:02:54;;;;;;;9.65;3.72;;;16.90;94.80;;;;;;5053302;28;20034;-60
2023/06/12 04:05:20;;;;;;;9.55;3.90;;;16.90;94.90;;;;;;5061205;28;20089;-60
2023/06/12 04:07:46;;;;;;;10.68;3.95;;;16.90;95.10;;;;;;5043038;28;20097;-61
2023/06/12 04:10:12;;;;;;;8.85;4.07;;;16.90;95.30;;;;;;5075040;28;20458;-60
2023/06/12 04:12:38;;;;;;;9.27;3.80;;;16.90;95.50;;;;;;5080299;28;20370;-60
2023/06/12 04:15:04;;;;;;;7.60;3.92;;;16.90;95.60;;;;;;5057148;28;20043;-61
2023/06/12 04:17:30;;;;;;;7.97;3.45;;;16.90;95.70;;;;;;5054237;28;20503;-60
2023/06/12 04:20:00;;;;;;;6.18;3.97;;;16.80;95.70;;;;;;5065858;28;20044;-60
2023/06/12 04:22:27;;;;;;;7.35;3.70;;;16.90;95.90;;;;;;5055697;28;20028;-61
2023/06/12 04:24:53;;;;;;;7.80;3.47;;;16.90;96.00;;;;;;5072263;28;20063;-61
2023/06/12 04:27:22;;;;;;;8.52;3.80;;;17.00;96.10;;;;;;5068620;28;20032;-61
2023/06/12 04:29:47;;;;;;;7.43;4.38;;;17.00;96.10;;;;;;5064456;28;20077;-61
2023/06/12 04:32:13;;;;;;;6.00;3.58;;;17.00;96.20;;;;;;5047390;28;20254;-60
2023/06/12 04:34:41;;;;;;;9.23;4.25;;;16.90;96.40;;;;;;5046357;28;20569;-61
2023/06/12 04:37:14;;;;;;;13.38;3.92;;;17.00;96.50;;;;;;5084250;28;20522;-61
2023/06/12 04:39:43;;;;;;;7.60;3.50;;;17.00;96.60;;;;;;5074948;28;20434;-60
2023/06/12 04:42:10;;;;;;;8.70;3.53;;;17.00;96.60;;;;;;5051115;28;20048;-60
2023/06/12 04:44:39;;;;;;;9.15;4.65;;;17.00;96.80;;;;;;5064358;28;20520;-60
2023/06/12 04:47:08;;;;;;;8.18;3.72;;;17.00;96.90;;;;;;5057019;28;20040;-60
2023/06/12 04:49:35;;;;;;;7.03;4.20;;;17.00;97.00;;;;;;5081287;28;20115;-58
2023/06/12 04:52:02;;;;;;;9.73;3.85;;;17.00;97.10;;;;;;5066590;28;20044;-60
2023/06/12 04:54:35;;;;;;;8.20;4.35;;;17.10;97.20;;;;;;5069735;28;20083;-60
2023/06/12 04:57:07;;;;;;;10.68;4.40;;;17.10;97.30;;;;;;5076753;28;20040;-61
2023/06/12 04:59:37;;;;;;;7.95;3.78;;;17.10;97.40;;;;;;5046731;28;20047;-60
2023/06/12 05:02:04;;;;;;;10.82;4.28;;;17.20;97.40;;;;;;5062098;28;20648;-60
2023/06/12 05:04:33;;;;;;;6.72;4.20;;;17.20;97.50;;;;;;5079368;28;20286;-61
2023/06/12 05:07:02;;;;;;;8.10;4.40;;;17.20;97.60;;;;;;5074614;28;20036;-59
2023/06/12 05:09:28;;;;;;;8.50;4.32;;;17.20;97.80;;;;;;5075854;28;20058;-61
2023/06/12 05:11:53;;;;;;;9.55;4.72;;;17.30;97.90;;;;;;5062058;28;20048;-60
2023/06/12 05:14:19;;;;;;;7.03;4.20;;;17.40;97.90;;;;;;5063233;28;20055;-57
2023/06/12 05:16:46;;;;;;;6.40;4.03;;;17.40;98.00;;;;;;5042993;28;20161;-60
2023/06/12 05:19:13;;;;;;;9.15;4.38;;;17.50;98.10;;;;;;5058981;28;20434;-62
2023/06/12 05:21:43;;;;;;;6.57;4.30;;;17.60;98.10;;;;;;5085358;28;20079;-60
2023/06/12 05:24:09;;;;;;;15.80;4.80;;;17.70;98.10;;;;;;5066265;28;20044;-60
2023/06/12 05:26:34;;;;;;;7.93;3.97;;;17.70;98.20;;;;;;5064736;28;20028;-61
2023/06/12 05:29:01;;;;;;;6.50;4.13;;;17.80;98.20;;;;;;5055908;28;20093;-61
2023/06/12 05:31:28;;;;;;;10.38;4.38;;;17.90;98.30;;;;;;5064904;28;20394;-60
2023/06/12 05:33:54;;;;;;;8.70;4.28;;;18.00;98.30;;;;;;5064114;28;20044;-60
2023/06/12 05:36:21;;;;;;;8.77;4.70;;;18.10;98.20;;;;;;5062046;28;20075;-61
2023/06/12 05:38:46;;;;;;;8.30;4.57;;;18.20;98.20;;;;;;5059214;28;20227;-60
2023/06/12 05:41:14;;;;;;;5.93;4.30;;;18.30;98.20;;;;;;5044620;28;20507;-59
2023/06/12 05:43:40;;;;;;;6.75;3.83;;;18.40;98.20;;;;;;5062913;28;20503;-61
2023/06/12 05:46:06;;;;;;;7.30;4.60;;;18.40;98.00;;;;;;5070804;28;20036;-60
2023/06/12 05:48:31;;;;;;;9.88;4.60;;;18.50;97.90;;;;;;5080783;28;20516;-60
2023/06/12 05:50:57;;;;;;;12.77;4.40;;;18.50;97.90;;;;;;5076340;28;20050;-61
2023/06/12 05:53:23;;;;;;;8.70;4.32;;;18.60;98.00;;;;;;5070459;28;20048;-60
2023/06/12 05:55:51;;;;;;;8.88;4.40;;;18.60;97.90;;;;;;5069102;28;20059;-61
2023/06/12 05:58:17;;;;;;;6.97;4.10;;;18.70;98.00;;;;;;5067463;28;20048;-60
2023/06/12 06:00:47;;;;;;;5.90;4.63;;;18.80;98.00;;;;;;5049415;28;20063;-61
2023/06/12 06:03:13;;;;;;;8.82;4.38;;;18.80;97.90;;;;;;5087090;28;20090;-61
2023/06/12 06:05:38;;;;;;;8.65;4.30;;;18.90;98.00;;;;;;5068596;28;20059;-61
2023/06/12 06:08:07;;;;;;;7.07;4.32;;;19.00;98.10;;;;;;5060948;28;20036;-61
2023/06/12 06:10:33;;;;;;;8.82;4.13;;;19.00;98.00;;;;;;5079485;28;20063;-60
2023/06/12 06:12:58;;;;;;;9.85;4.90;;;19.10;97.90;;;;;;5048824;28;20071;-61
2023/06/12 06:15:24;;;;;;;11.48;4.30;;;19.20;97.90;;;;;;5058413;28;20132;-61
2023/06/12 06:17:50;;;;;;;6.45;4.07;;;19.30;98.10;;;;;;5075891;28;20082;-61
2023/06/12 06:20:17;;;;;;;10.48;5.55;;;19.40;98.00;;;;;;5070992;28;20131;-60
2023/06/12 06:22:43;;;;;;;7.45;4.05;;;19.50;97.80;;;;;;5077834;28;20743;-61
2023/06/12 06:25:13;;;;;;;10.30;4.95;;;19.50;97.60;;;;;;5077614;28;20344;-61
2023/06/12 06:27:39;;;;;;;13.43;4.90;;;19.50;97.60;;;;;;5065840;28;20036;-60
2023/06/12 06:30:05;;;;;;;8.98;4.20;;;19.60;97.70;;;;;;5050583;28;20039;-61
2023/06/12 06:32:31;;;;;;;7.90;4.68;;;19.70;97.70;;;;;;5080202;28;20467;-61
2023/06/12 06:34:57;;;;;;;9.63;5.47;;;19.80;97.70;;;;;;5066258;28;20136;-61
2023/06/12 06:37:23;;;;;;;13.20;4.80;;;19.90;97.80;;;;;;5060846;28;20074;-62
2023/06/12 06:39:48;;;;;;;7.07;4.80;;;20.10;97.80;;;;;;5065536;28;20044;-61
2023/06/12 06:42:14;;;;;;;9.90;4.65;;;20.20;97.70;;;;;;5075736;28;20438;-61
2023/06/12 06:44:40;;;;;;;6.95;5.15;;;20.30;97.60;;;;;;5065776;28;20044;-59
2023/06/12 06:47:09;;;;;;;11.57;4.90;;;20.30;97.50;;;;;;5071147;28;20303;-61
2023/06/12 06:49:35;;;;;;;13.52;4.60;;;20.40;97.50;;;;;;5081822;28;20040;-61
2023/06/12 06:52:01;;;;;;;7.50;4.35;;;20.50;97.40;;;;;;5080532;28;20059;-60
2023/06/12 06:54:26;;;;;;;9.82;4.75;;;20.60;97.40;;;;;;5066660;28;20380;-61
2023/06/12 06:56:52;;;;;;;8.93;5.15;;;20.70;97.50;;;;;;5059425;28;20043;-60
2023/06/12 06:59:18;;;;;;;9.73;5.07;;;20.80;97.40;;;;;;5066282;28;20040;-61
2023/06/12 07:01:44;;;;;;;9.88;4.60;;;20.90;97.40;;;;;;5063183;28;20058;-61
2023/06/12 07:04:09;;;;;;;9.00;5.05;;;21.00;97.50;;;;;;5054244;28;20078;-60
2023/06/12 07:06:35;;;;;;;10.55;4.78;;;21.10;97.50;;;;;;5066341;28;20051;-61
2023/06/12 07:09:01;;;;;;;8.35;5.03;;;21.20;97.40;;;;;;5047863;28;20099;-60
2023/06/12 07:11:28;;;;;;;8.27;4.68;;;21.20;97.40;;;;;;5076008;28;20045;-59
2023/06/12 07:13:53;;;;;;;10.13;5.00;;;21.30;97.40;;;;;;5068854;28;20506;-61
2023/06/12 07:16:19;;;;;;;9.18;4.72;;;21.40;97.30;;;;;;5067196;28;20043;-61
2023/06/12 07:18:45;;;;;;;10.40;4.97;;;21.50;97.40;;;;;;5069682;28;20036;-60
2023/06/12 07:21:11;;;;;;;9.95;5.18;;;21.70;97.20;;;;;;5046018;28;20039;-61
2023/06/12 07:23:37;;;;;;;10.30;5.22;;;21.90;96.90;;;;;;5078697;28;20032;-59
2023/06/12 07:26:02;;;;;;;10.13;4.90;;;22.00;96.70;;;;;;5060455;28;20044;-60
2023/06/12 07:28:28;;;;;;;14.07;6.05;;;22.00;96.60;;;;;;5061366;28;20121;-60
2023/06/12 07:30:54;;;;;;;14.88;5.20;;;22.10;96.60;;;;;;5049488;28;20047;-61
2023/06/12 07:33:20;;;;;;;11.50;5.55;;;22.00;96.60;;;;;;5061820;28;20123;-61
2023/06/12 07:35:46;;;;;;;10.93;5.05;;;22.10;96.60;;;;;;5062933;28;20040;-62
2023/06/12 07:38:12;;;;;;;12.43;4.80;;;22.20;96.50;;;;;;5074296;28;20067;-61
2023/06/12 07:40:38;;;;;;;12.70;6.07;;;22.30;96.50;;;;;;5077027;28;20044;-61
2023/06/12 07:43:04;;;;;;;7.13;5.00;;;22.30;96.30;;;;;;5061858;28;20428;-57
2023/06/12 07:45:30;;;;;;;11.00;5.05;;;22.40;96.30;;;;;;5080468;28;20044;-62
2023/06/12 07:47:57;;;;;;;9.52;5.22;;;22.60;95.90;;;;;;5060069;28;20032;-62
2023/06/12 07:50:24;;;;;;;19.05;5.63;;;22.60;95.70;;;;;;5055182;28;20052;-61
2023/06/12 07:52:50;;;;;;;10.90;5.38;;;22.60;95.80;;;;;;5070361;28;20051;-61
2023/06/12 07:55:16;;;;;;;10.43;5.70;;;22.70;95.90;;;;;;5054737;28;20269;-61
2023/06/12 07:57:42;;;;;;;10.15;5.28;;;22.80;95.80;;;;;;5077130;28;20115;-62
2023/06/12 08:00:08;;;;;;;8.32;5.20;;;22.90;95.50;;;;;;5064683;28;20062;-61
2023/06/12 08:02:35;;;;;;;10.95;5.55;;;23.00;95.50;;;;;;5055241;28;20058;-62
2023/06/12 08:05:03;;;;;;;9.63;5.00;;;23.10;95.20;;;;;;5061297;28;20037;-61
2023/06/12 08:07:30;;;;;;;10.80;5.78;;;23.20;95.20;;;;;;5063368;28;20036;-61
2023/06/12 08:09:56;;;;;;;8.68;5.40;;;23.30;95.00;;;;;;5078450;28;20503;-62
2023/06/12 08:12:28;;;;;;;10.60;5.38;;;23.30;94.50;;;;;;5059787;28;20047;-62
2023/06/12 08:14:54;;;;;;;10.05;4.85;;;23.40;94.50;;;;;;5079163;28;20131;-62
2023/06/12 08:17:20;;;;;;;10.75;5.10;;;23.50;94.40;;;;;;5048526;28;20040;-62
2023/06/12 08:19:48;;;;;;;11.05;5.20;;;23.60;94.50;;;;;;5064069;28;20131;-62
2023/06/12 08:22:15;;;;;;;8.05;5.25;;;23.80;94.40;;;;;;5045780;28;20047;-62
2023/06/12 08:24:43;;;;;;;7.75;4.95;;;23.80;93.60;;;;;;5047841;28;20827;-62
2023/06/12 08:27:11;;;;;;;13.82;5.05;;;23.80;93.60;;;;;;5063489;28;20044;-62
2023/06/12 08:29:39;;;;;;;6.53;5.28;;;23.90;93.70;;;;;;5074159;28;20048;-63
2023/06/12 08:32:06;;;;;;;11.93;5.35;;;23.90;93.60;;;;;;5080911;28;20050;-62
2023/06/12 08:34:32;;;;;;;10.10;5.78;;;24.00;93.90;;;;;;5042345;28;20059;-62
2023/06/12 08:36:58;;;;;;;8.35;5.68;;;24.20;93.90;;;;;;5066485;28;20064;-61
2023/06/12 08:39:24;;;;;;;14.70;5.10;;;24.30;93.50;;;;;;5059321;28;20759;-61
2023/06/12 08:42:10;;;;;;;9.90;5.00;;;24.30;93.50;;;;;;5073809;28;20453;-61
2023/06/12 08:44:37;;;;;;;19.13;7.00;;;24.50;93.50;;;;;;5062505;28;20040;-62
2023/06/12 08:47:04;;;;;;;11.13;5.80;;;24.60;93.20;;;;;;5066859;28;20049;-62
2023/06/12 08:49:30;;;;;;;11.35;5.50;;;24.80;92.50;;;;;;5077933;28;20048;-62
2023/06/12 08:51:56;;;;;;;10.43;5.13;;;24.90;93.00;;;;;;5072982;28;20044;-62
2023/06/12 08:54:22;;;;;;;16.35;5.22;;;24.90;92.70;;;;;;5062294;28;20502;-62
2023/06/12 08:56:50;;;;;;;12.13;5.32;;;25.00;92.20;;;;;;5080596;28;20040;-61
2023/06/12 08:59:16;;;;;;;8.65;4.93;;;24.90;91.50;;;;;;5070784;28;20132;-61
2023/06/12 09:01:43;;;;;;;7.13;3.92;;;25.00;91.20;;;;;;5075294;28;20173;-61
2023/06/12 09:04:26;;;;;;;7.90;4.45;;;25.10;90.80;;;;;;5079291;28;20159;-61
2023/06/12 09:07:01;;;;;;;7.32;4.20;;;25.30;90.90;;;;;;5077638;28;20074;-61
2023/06/12 09:09:40;;;;;;;8.82;4.50;;;25.40;90.60;;;;;;5061874;28;20055;-61
2023/06/12 09:12:12;;;;;;;11.18;4.82;;;25.50;88.60;;;;;;5072567;28;20744;-61
2023/06/12 09:14:44;;;;;;;8.25;4.65;;;25.70;89.30;;;;;;5060121;28;20046;-61
2023/06/12 09:17:10;;;;;;;8.32;4.40;;;25.80;88.90;;;;;;5074939;28;20126;-61
2023/06/12 09:19:39;;;;;;;9.25;4.18;;;25.90;88.90;;;;;;5068597;28;20123;-62
2023/06/12 09:22:06;;;;;;;6.63;4.25;;;25.90;86.90;;;;;;5078581;28;20044;-61
2023/06/12 09:24:32;;;;;;;8.48;5.00;;;26.00;87.20;;;;;;5071544;28;20093;-61
2023/06/12 09:26:59;;;;;;;7.18;3.85;;;26.00;87.10;;;;;;5062510;28;20032;-61
2023/06/12 09:29:33;;;;;;;9.57;4.07;;;26.10;87.30;;;;;;5064015;28;20078;-61
2023/06/12 09:32:15;;;;;;;8.65;4.30;;;26.20;85.70;;;;;;5060453;28;20222;-61
2023/06/12 09:34:49;;;;;;;12.23;4.22;;;26.10;84.70;;;;;;5064918;28;20044;-62
2023/06/12 09:37:16;;;;;;;7.50;4.45;;;26.20;84.60;;;;;;5046198;28;20044;-61
2023/06/12 09:39:43;;;;;;;6.32;4.03;;;26.30;85.20;;;;;;5064384;28;20047;-59
2023/06/12 09:42:13;;;;;;;5.60;4.00;;;26.50;86.00;;;;;;5071690;28;20142;-60
2023/06/12 09:44:39;;;;;;;8.55;3.70;;;26.60;84.30;;;;;;5082939;28;20040;-59
2023/06/12 09:47:05;;;;;;;7.63;4.50;;;26.80;84.30;;;;;;5066765;28;20041;-60
2023/06/12 09:49:33;;;;;;;9.65;4.15;;;26.80;83.70;;;;;;5081215;28;20452;-58
2023/06/12 09:52:05;;;;;;;7.10;4.00;;;26.90;84.30;;;;;;5082756;28;20048;-57
2023/06/12 09:54:35;;;;;;;7.63;4.07;;;26.90;82.70;;;;;;5064491;28;20557;-56
2023/06/12 09:57:06;;;;;;;7.10;3.80;;;27.00;82.90;;;;;;5062674;28;20044;-58
2023/06/12 09:59:33;;;;;;;8.45;5.25;;;27.00;81.80;;;;;;5076069;28;20052;-58
2023/06/12 10:02:19;;;;;;;6.50;4.13;;;27.00;81.20;;;;;;5064744;28;20047;-60
2023/06/12 10:05:06;;;;;;;8.80;4.40;;;27.00;81.60;;;;;;5081312;28;20043;-59
2023/06/12 10:07:38;;;;;;;8.73;3.97;;;27.10;79.50;;;;;;5063794;28;20043;-57
2023/06/12 10:10:07;;;;;;;6.60;3.83;;;27.10;80.10;;;;;;5080386;28;20044;-58
2023/06/12 10:12:34;;;;;;;6.97;4.22;;;27.20;80.40;;;;;;5086309;28;20111;-59
2023/06/12 10:15:03;;;;;;;7.90;4.30;;;27.40;81.40;;;;;;5062369;28;20123;-58
2023/06/12 10:17:30;;;;;;;6.47;3.47;;;27.50;78.50;;;;;;5062123;28;20040;-58
2023/06/12 10:19:56;;;;;;;7.07;4.05;;;27.70;78.70;;;;;;5079784;28;20048;-59
2023/06/12 10:22:22;;;;;;;6.45;3.85;;;27.70;76.40;;;;;;5064155;28;20115;-59
2023/06/12 10:24:48;;;;;;;7.90;3.72;;;27.70;75.50;;;;;;5046764;28;20280;-60
2023/06/12 10:27:16;;;;;;;4.82;3.70;;;27.80;76.40;;;;;;5068442;28;20047;-56
2023/06/12 10:29:42;;;;;;;7.43;3.22;;;27.90;75.20;;;;;;5073844;28;20062;-60
2023/06/12 10:32:14;;;;;;;6.32;3.63;;;27.80;74.10;;;;;;5070454;28;20044;-60
2023/06/12 10:34:45;;;;;;;6.55;3.40;;;28.00;73.70;;;;;;5071334;28;20453;-56
2023/06/12 10:37:42;;;;;;;6.55;3.67;;;28.10;74.90;;;;;;5062230;28;20056;-58
2023/06/12 10:40:21;;;;;;;7.28;3.53;;;28.20;73.20;;;;;;5062192;28;20397;-56
2023/06/12 10:42:50;;;;;;;15.40;4.03;;;28.30;72.70;;;;;;5047652;28;20100;-59
2023/06/12 10:45:30;;;;;;;7.00;3.40;;;28.20;71.20;;;;;;5046852;28;20383;-58
2023/06/12 10:48:11;;;;;;;4.28;2.90;;;28.30;70.50;;;;;;5077041;28;20147;-59
2023/06/12 10:50:44;;;;;;;6.00;3.58;;;28.30;67.70;;;;;;5073056;28;20044;-59
2023/06/12 10:53:36;;;;;;;6.43;3.88;;;28.30;69.10;;;;;;5069182;28;20055;-60
2023/06/12 10:56:07;;;;;;;5.40;3.50;;;28.50;69.50;;;;;;5075383;28;20109;-59
2023/06/12 10:58:41;;;;;;;5.10;3.25;;;28.50;70.60;;;;;;5065869;28;20506;-57
2023/06/12 11:01:14;;;;;;;5.75;3.08;;;28.60;70.30;;;;;;5065214;28;20074;-60
2023/06/12 11:03:44;;;;;;;6.43;3.13;;;28.90;68.30;;;;;;5082832;28;20032;-61
2023/06/12 11:06:15;;;;;;;4.82;3.00;;;28.90;68.00;;;;;;5066324;28;20057;-58
2023/06/12 11:08:41;;;;;;;6.43;2.85;;;28.90;63.90;;;;;;5062652;28;20328;-57
2023/06/12 11:11:08;;;;;;;5.82;2.78;;;29.00;65.70;;;;;;5061799;28;20110;-58
2023/06/12 11:13:35;;;;;;;5.03;3.47;;;29.30;65.00;;;;;;5083431;28;20451;-59
2023/06/12 11:16:01;;;;;;;6.35;3.33;;;29.30;64.60;;;;;;5047300;28;20052;-57
2023/06/12 11:18:27;;;;;;;6.03;3.60;;;29.50;65.10;;;;;;5064266;28;20042;-60
2023/06/12 11:20:56;;;;;;;6.03;3.38;;;29.80;66.10;;;;;;5062046;28;20045;-59
2023/06/12 11:23:26;;;;;;;8.25;3.95;;;30.00;66.10;;;;;;5053238;28;20570;-59
2023/06/12 11:25:54;;;;;;;5.55;3.75;;;29.90;64.40;;;;;;5085262;28;20048;-57
2023/06/12 11:28:20;;;;;;;5.63;3.63;;;30.00;65.20;;;;;;5068074;28;20048;-61
2023/06/12 11:30:51;;;;;;;4.72;4.03;;;29.90;65.10;;;;;;5066506;28;20608;-60
2023/06/12 11:33:17;;;;;;;6.65;3.53;;;29.90;66.30;;;;;;5056586;28;20141;-59
2023/06/12 11:35:45;;;;;;;6.82;3.50;;;30.00;66.30;;;;;;5083193;28;20113;-57
2023/06/12 11:38:16;;;;;;;4.57;3.60;;;30.00;67.00;;;;;;5067078;28;20414;-59
2023/06/12 11:40:43;;;;;;;7.53;4.43;;;30.20;67.30;;;;;;5059760;28;20044;-59
2023/06/12 11:43:09;;;;;;;7.53;3.90;;;30.30;66.90;;;;;;5077353;28;20436;-61
2023/06/12 11:45:41;;;;;;;8.48;4.20;;;30.20;66.60;;;;;;5078684;28;20483;-59
2023/06/12 11:48:13;;;;;;;8.20;4.27;;;30.00;68.30;;;;;;5059152;28;20040;-60
2023/06/12 11:50:39;;;;;;;8.60;5.22;;;30.00;67.30;;;;;;5077371;28;20079;-59
2023/06/12 11:53:05;;;;;;;10.75;4.18;;;30.00;68.30;;;;;;5063827;28;20398;-57
2023/06/12 11:55:32;;;;;;;8.63;4.60;;;30.00;67.00;;;;;;5085236;28;20036;-56
2023/06/12 11:58:01;;;;;;;6.68;4.80;;;29.90;67.70;;;;;;5077808;28;20111;-57
2023/06/12 12:00:30;;;;;;;6.65;4.40;;;29.70;68.10;;;;;;5082837;28;20044;-56
2023/06/12 12:03:01;;;;;;;10.23;4.15;;;29.90;67.20;;;;;;5080105;28;20032;-58
2023/06/12 12:05:32;;;;;;;8.43;3.85;;;30.10;66.50;;;;;;5079180;28;20123;-58
2023/06/12 12:08:03;;;;;;;7.00;4.03;;;30.20;63.60;;;;;;5070210;28;20044;-57
2023/06/12 12:10:30;;;;;;;7.97;4.53;;;30.30;64.80;;;;;;5053738;28;20086;-57
2023/06/12 12:13:00;;;;;;;7.25;4.45;;;30.30;64.40;;;;;;5069069;28;20518;-56
2023/06/12 12:15:45;;;;;;;6.72;4.38;;;30.50;66.30;;;;;;5064160;28;20059;-57
2023/06/12 12:18:17;;;;;;;7.28;4.57;;;30.50;64.80;;;;;;5077737;28;20074;-56
2023/06/12 12:20:47;;;;;;;10.13;4.50;;;30.50;66.10;;;;;;5079600;28;20777;-57
2023/06/12 12:23:13;;;;;;;9.32;4.53;;;30.60;64.90;;;;;;5062391;28;20165;-54
2023/06/12 12:25:43;;;;;;;5.75;4.10;;;30.60;65.30;;;;;;5063669;28;20043;-56
2023/06/12 12:28:09;;;;;;;5.80;4.22;;;30.60;65.00;;;;;;5069933;28;20143;-57
2023/06/12 12:30:36;;;;;;;8.35;4.50;;;30.50;61.80;;;;;;5041506;28;20597;-57
2023/06/12 12:33:02;;;;;;;8.02;4.30;;;30.40;61.80;;;;;;5068860;28;20071;-56
2023/06/12 12:35:28;;;;;;;5.80;3.72;;;30.40;59.90;;;;;;5065046;28;20479;-56
2023/06/12 12:37:55;;;;;;;5.55;4.00;;;30.50;60.80;;;;;;5050432;28;20081;-58
2023/06/12 12:40:23;;;;;;;6.38;4.03;;;30.70;60.90;;;;;;5080059;28;20028;-58
2023/06/12 12:42:50;;;;;;;5.47;4.00;;;30.90;60.70;;;;;;5077542;28;20504;-60
2023/06/12 12:45:18;;;;;;;5.43;4.38;;;31.00;61.40;;;;;;5058005;28;20035;-58
2023/06/12 12:47:47;;;;;;;7.80;4.38;;;31.10;60.70;;;;;;5078067;28;20169;-60
2023/06/12 12:50:14;;;;;;;8.85;4.60;;;31.20;59.40;;;;;;5083671;28;20282;-61